Time;durP1;ratioP1;P1;durP2;ratioP2;P2;SDS_P1;SDS_P2;PMS_P1;PMS_P2;Temp;Humidity;BMP_temperature;BMP_pressure;BME280_temperature;BME280_humidity;BME280_pressure;Samples;Min_cycle;Max_cycle;Signal;HPM_P1;HPM_P2
2023/04/20 00:01:53;;;;;;;3.90;2.08;;;13.00;72.10;;;;;;5035899;28;20505;-86
2023/04/20 00:04:20;;;;;;;4.43;2.20;;;13.00;72.30;;;;;;5034562;28;20041;-86
2023/04/20 00:06:46;;;;;;;4.05;2.15;;;13.00;72.20;;;;;;5034383;28;20071;-86
2023/04/20 00:09:12;;;;;;;4.18;2.15;;;13.00;72.20;;;;;;5033544;28;20025;-86
2023/04/20 00:11:38;;;;;;;4.93;2.47;;;13.00;72.10;;;;;;5034133;28;20371;-85
2023/04/20 00:14:04;;;;;;;4.10;2.15;;;13.00;72.00;;;;;;5034067;28;20021;-86
2023/04/20 00:16:30;;;;;;;3.63;2.10;;;13.00;71.90;;;;;;5052123;28;20036;-86
2023/04/20 00:18:55;;;;;;;4.85;2.35;;;12.90;71.90;;;;;;5037396;28;20021;-85
2023/04/20 00:21:22;;;;;;;3.90;2.20;;;13.00;71.90;;;;;;5037314;28;20393;-85
2023/04/20 00:23:49;;;;;;;4.32;2.42;;;12.90;71.90;;;;;;5037431;28;20021;-85
2023/04/20 00:26:15;;;;;;;4.30;2.10;;;13.00;71.90;;;;;;5037316;28;20032;-85
2023/04/20 00:28:41;;;;;;;4.22;2.20;;;13.00;72.00;;;;;;5037409;28;20500;-85
2023/04/20 00:31:07;;;;;;;4.43;2.20;;;12.90;71.90;;;;;;5054806;28;20107;-85
2023/04/20 00:33:32;;;;;;;3.92;2.10;;;13.00;72.00;;;;;;5037298;28;20124;-86
2023/04/20 00:35:58;;;;;;;4.65;2.22;;;12.90;71.70;;;;;;5037203;28;20385;-85
2023/04/20 00:38:23;;;;;;;4.85;2.20;;;13.00;71.90;;;;;;5037173;28;20385;-86
2023/04/20 00:40:52;;;;;;;4.60;2.25;;;13.00;71.90;;;;;;5037084;28;20489;-85
2023/04/20 00:43:18;;;;;;;4.75;2.30;;;13.00;71.80;;;;;;5037120;28;20056;-85
2023/04/20 00:45:45;;;;;;;4.22;2.20;;;13.00;71.90;;;;;;5036956;28;20025;-85
2023/04/20 00:48:10;;;;;;;3.88;2.17;;;13.00;71.60;;;;;;5036846;28;20029;-86
2023/04/20 00:50:37;;;;;;;4.53;2.20;;;13.00;71.80;;;;;;5036619;28;20035;-85
2023/04/20 00:53:05;;;;;;;4.75;2.28;;;13.00;71.90;;;;;;5036914;28;20025;-86
2023/04/20 00:55:30;;;;;;;4.63;2.53;;;13.00;71.70;;;;;;5036860;28;20017;-86
2023/04/20 00:57:56;;;;;;;5.28;2.33;;;13.00;71.60;;;;;;5036638;28;20120;-86
2023/04/20 01:00:22;;;;;;;4.70;2.38;;;13.00;71.90;;;;;;5054463;28;20032;-86
2023/04/20 01:02:47;;;;;;;4.38;2.20;;;13.10;71.90;;;;;;5036734;28;20112;-86
2023/04/20 01:05:13;;;;;;;4.68;2.17;;;13.00;71.80;;;;;;5036462;28;20036;-85
2023/04/20 01:07:39;;;;;;;3.92;2.30;;;13.00;71.80;;;;;;5036705;28;20017;-85
2023/04/20 01:10:06;;;;;;;4.25;2.35;;;13.00;71.90;;;;;;5036648;28;20524;-85
2023/04/20 01:12:32;;;;;;;4.68;2.42;;;12.90;71.70;;;;;;5035870;28;20489;-85
2023/04/20 01:17:25;;;;;;;4.47;2.05;;;13.00;71.90;;;;;;5107139;22;20057;-82
2023/04/20 01:19:51;;;;;;;4.93;2.40;;;12.90;71.90;;;;;;5036698;28;20136;-83
2023/04/20 01:22:20;;;;;;;4.40;2.40;;;12.90;71.60;;;;;;5043206;28;20516;-84
2023/04/20 01:24:46;;;;;;;4.80;2.22;;;12.90;71.90;;;;;;5047391;28;20036;-84
2023/04/20 01:27:15;;;;;;;3.97;2.20;;;12.90;72.00;;;;;;5063613;28;20032;-82
2023/04/20 01:29:40;;;;;;;4.68;2.38;;;12.90;72.00;;;;;;5044980;28;20052;-84
2023/04/20 01:32:06;;;;;;;5.05;2.35;;;12.90;72.10;;;;;;5046946;28;20029;-84
2023/04/20 01:34:32;;;;;;;4.28;2.30;;;13.00;72.00;;;;;;5064963;28;20025;-84
2023/04/20 01:36:58;;;;;;;4.18;2.28;;;12.90;72.00;;;;;;5046592;28;20473;-81
2023/04/20 01:39:23;;;;;;;4.72;2.25;;;13.00;72.10;;;;;;5045350;28;20021;-83
2023/04/20 01:41:49;;;;;;;4.47;2.53;;;12.90;72.10;;;;;;5044788;28;20082;-83
2023/04/20 01:44:15;;;;;;;3.33;2.10;;;12.90;72.20;;;;;;5042147;28;20082;-83
2023/04/20 01:46:40;;;;;;;5.22;2.40;;;12.90;72.20;;;;;;5041558;28;20132;-83
2023/04/20 01:49:07;;;;;;;4.82;2.30;;;12.90;72.20;;;;;;5040960;28;20389;-84
2023/04/20 01:51:33;;;;;;;4.18;2.40;;;12.90;72.20;;;;;;5040179;28;20028;-84
2023/04/20 01:54:00;;;;;;;5.55;2.58;;;12.90;72.20;;;;;;5040313;28;20114;-83
2023/04/20 01:56:25;;;;;;;3.97;2.30;;;12.90;72.30;;;;;;5059039;28;20027;-84
2023/04/20 01:58:51;;;;;;;4.47;1.92;;;12.90;72.30;;;;;;5040388;28;20107;-82
2023/04/20 02:01:16;;;;;;;4.97;2.40;;;12.90;72.20;;;;;;5035031;28;20119;-83
2023/04/20 02:03:42;;;;;;;4.70;2.40;;;12.90;72.30;;;;;;5057050;28;20029;-83
2023/04/20 02:06:07;;;;;;;4.35;2.30;;;12.90;72.30;;;;;;5038837;28;20025;-82
2023/04/20 02:08:34;;;;;;;4.85;2.55;;;12.90;72.30;;;;;;5038253;28;20025;-84
2023/04/20 02:10:59;;;;;;;5.18;2.40;;;12.90;72.40;;;;;;5057017;28;20036;-83
2023/04/20 02:13:25;;;;;;;4.15;2.28;;;12.90;72.40;;;;;;5039103;28;20025;-84
2023/04/20 02:15:50;;;;;;;3.95;2.22;;;12.90;72.40;;;;;;5041592;28;20111;-84
2023/04/20 02:18:16;;;;;;;4.78;2.45;;;12.90;72.50;;;;;;5040770;28;20393;-83
2023/04/20 02:20:43;;;;;;;4.90;2.33;;;12.90;72.50;;;;;;5040120;28;20025;-84
2023/04/20 02:23:08;;;;;;;4.47;2.42;;;12.90;72.50;;;;;;5042128;28;20053;-84
2023/04/20 02:25:35;;;;;;;4.50;2.45;;;12.90;72.50;;;;;;5043175;28;20029;-83
2023/04/20 02:28:00;;;;;;;5.90;2.63;;;12.90;72.50;;;;;;5042635;28;20082;-85
2023/04/20 02:30:26;;;;;;;4.38;2.28;;;12.90;72.50;;;;;;5042642;28;20025;-83
2023/04/20 02:32:51;;;;;;;3.85;2.20;;;12.90;72.60;;;;;;5039013;28;20024;-82
2023/04/20 02:35:17;;;;;;;4.47;2.35;;;12.90;72.60;;;;;;5043134;28;20088;-83
2023/04/20 02:37:43;;;;;;;4.10;2.35;;;12.90;72.60;;;;;;5044863;28;20028;-86
2023/04/20 02:40:09;;;;;;;4.68;2.35;;;12.90;72.60;;;;;;5060444;28;20084;-87
2023/04/20 02:42:34;;;;;;;4.35;2.50;;;12.90;72.60;;;;;;5060177;28;20063;-83
2023/04/20 02:45:00;;;;;;;4.65;2.42;;;12.90;72.60;;;;;;5047761;28;20083;-83
2023/04/20 02:47:26;;;;;;;4.80;2.38;;;12.90;72.60;;;;;;5077668;28;20059;-84
2023/04/20 02:49:51;;;;;;;4.38;2.60;;;12.90;72.60;;;;;;5059190;28;20020;-85
2023/04/20 02:52:16;;;;;;;4.22;2.30;;;12.90;72.60;;;;;;5059168;28;20039;-83
2023/04/20 02:54:42;;;;;;;4.78;2.50;;;12.90;72.60;;;;;;5059260;28;20556;-83
2023/04/20 02:57:09;;;;;;;5.50;2.45;;;12.90;72.50;;;;;;5059414;28;20031;-83
2023/04/20 02:59:35;;;;;;;4.05;2.30;;;12.80;72.50;;;;;;5059598;28;20020;-83
2023/04/20 03:02:00;;;;;;;4.50;2.40;;;12.90;72.60;;;;;;5059154;28;20028;-82
2023/04/20 03:04:26;;;;;;;4.65;2.38;;;12.90;72.50;;;;;;5077335;28;20032;-84
2023/04/20 03:06:52;;;;;;;4.47;2.30;;;12.90;72.60;;;;;;5060087;28;20051;-84
2023/04/20 03:09:18;;;;;;;5.22;2.40;;;12.90;72.60;;;;;;5058613;28;20154;-83
2023/04/20 03:11:44;;;;;;;4.63;2.58;;;12.90;72.60;;;;;;5076036;28;20038;-83
2023/04/20 03:14:10;;;;;;;4.15;2.33;;;12.90;72.60;;;;;;5058409;28;20095;-83
2023/04/20 03:16:35;;;;;;;4.40;2.35;;;12.90;72.60;;;;;;5075840;28;20493;-82
2023/04/20 03:19:01;;;;;;;4.70;2.65;;;12.90;72.60;;;;;;5076075;28;20027;-83
2023/04/20 03:21:27;;;;;;;4.82;2.50;;;12.80;72.50;;;;;;5056975;28;20034;-83
2023/04/20 03:23:53;;;;;;;5.30;2.47;;;12.80;72.60;;;;;;5057277;28;20024;-83
2023/04/20 03:26:19;;;;;;;4.15;2.30;;;12.80;72.60;;;;;;5076087;28;20037;-83
2023/04/20 03:28:44;;;;;;;4.35;2.40;;;12.80;72.60;;;;;;5076680;28;20091;-82
2023/04/20 03:31:10;;;;;;;3.80;2.22;;;12.90;72.60;;;;;;5057040;28;20025;-84
2023/04/20 03:33:36;;;;;;;4.70;2.47;;;12.80;72.70;;;;;;5054659;28;20024;-83
2023/04/20 03:36:01;;;;;;;4.38;2.63;;;12.90;72.70;;;;;;5055459;28;20030;-83
2023/04/20 03:38:27;;;;;;;5.43;2.70;;;12.90;72.70;;;;;;5054750;28;20032;-84
2023/04/20 03:40:52;;;;;;;5.03;2.45;;;12.90;72.80;;;;;;5053845;28;20032;-84
2023/04/20 03:43:18;;;;;;;3.83;2.22;;;12.80;72.70;;;;;;5056737;28;20031;-82
2023/04/20 03:45:43;;;;;;;3.78;2.10;;;12.80;72.70;;;;;;5078359;28;20507;-82
2023/04/20 03:48:09;;;;;;;4.22;2.50;;;12.90;72.80;;;;;;5059916;28;20024;-83
2023/04/20 03:50:34;;;;;;;4.80;2.50;;;12.90;72.90;;;;;;5059702;28;20026;-82
2023/04/20 03:53:00;;;;;;;5.00;2.53;;;12.80;72.80;;;;;;5058935;28;20048;-83
2023/04/20 03:55:25;;;;;;;4.45;2.60;;;12.80;72.80;;;;;;5057432;28;20397;-83
2023/04/20 03:57:51;;;;;;;4.25;2.40;;;12.90;72.90;;;;;;5057874;28;20013;-82
2023/04/20 04:00:16;;;;;;;2.95;2.03;;;12.90;72.90;;;;;;5057876;28;20028;-82
2023/04/20 04:02:42;;;;;;;3.90;2.33;;;12.80;72.90;;;;;;5059117;28;20131;-82
2023/04/20 04:05:07;;;;;;;4.47;2.58;;;12.80;72.90;;;;;;5059745;28;20028;-83
2023/04/20 04:07:33;;;;;;;4.30;2.40;;;12.80;72.90;;;;;;5057920;28;20032;-83
2023/04/20 04:09:58;;;;;;;3.97;2.38;;;12.80;72.90;;;;;;5057876;28;20035;-82
2023/04/20 04:12:24;;;;;;;4.63;2.50;;;12.80;72.90;;;;;;5057450;28;20024;-82
2023/04/20 04:14:49;;;;;;;4.20;2.20;;;12.80;72.90;;;;;;5057362;28;20353;-82
2023/04/20 04:17:15;;;;;;;4.35;2.60;;;12.80;73.00;;;;;;5057230;28;20034;-82
2023/04/20 04:19:42;;;;;;;4.07;2.50;;;12.80;72.90;;;;;;5057187;28;20022;-81
2023/04/20 04:22:08;;;;;;;5.30;2.38;;;12.80;72.90;;;;;;5055906;28;20090;-81
2023/04/20 04:24:33;;;;;;;4.03;2.40;;;12.80;72.90;;;;;;5054293;28;20024;-81
2023/04/20 04:27:04;;;;;;;4.00;2.28;;;12.80;72.90;;;;;;5066233;28;20102;-81
2023/04/20 04:29:29;;;;;;;4.68;2.22;;;12.80;72.90;;;;;;5036513;28;20028;-83
2023/04/20 04:31:55;;;;;;;4.05;2.38;;;12.80;72.90;;;;;;5035413;28;20036;-81
2023/04/20 04:34:22;;;;;;;4.28;2.38;;;12.80;72.90;;;;;;5036483;28;20159;-81
2023/04/20 04:36:48;;;;;;;4.70;2.40;;;12.80;72.90;;;;;;5036761;28;20784;-81
2023/04/20 04:39:14;;;;;;;4.05;2.33;;;12.80;72.90;;;;;;5036498;28;20028;-84
2023/04/20 04:41:40;;;;;;;4.18;2.22;;;12.80;72.90;;;;;;5036324;28;20033;-79
2023/04/20 04:44:05;;;;;;;3.92;2.50;;;12.80;72.90;;;;;;5032279;28;20132;-83
2023/04/20 04:46:32;;;;;;;4.03;2.20;;;12.80;72.90;;;;;;5032819;28;20033;-81
2023/04/20 04:49:01;;;;;;;4.53;2.45;;;12.80;73.00;;;;;;5045028;28;20037;-83
2023/04/20 04:51:27;;;;;;;3.95;2.30;;;12.80;72.90;;;;;;5036038;28;20052;-87
2023/04/20 04:53:52;;;;;;;4.88;2.30;;;12.80;72.90;;;;;;5049175;28;20021;-82
2023/04/20 04:56:19;;;;;;;3.80;2.20;;;12.80;73.00;;;;;;5045885;28;20028;-80
2023/04/20 04:58:44;;;;;;;4.40;2.30;;;12.80;73.00;;;;;;5059936;28;20047;-83
2023/04/20 05:01:10;;;;;;;4.47;2.35;;;12.80;73.00;;;;;;5058275;28;20028;-81
2023/04/20 05:03:36;;;;;;;4.65;2.40;;;12.70;73.00;;;;;;5075553;28;20032;-82
2023/04/20 05:06:02;;;;;;;3.67;2.17;;;12.80;73.00;;;;;;5057966;28;20028;-82
2023/04/20 05:08:27;;;;;;;4.80;2.42;;;12.80;73.10;;;;;;5074781;28;20032;-80
2023/04/20 05:10:53;;;;;;;4.43;2.45;;;12.80;73.10;;;;;;5055989;28;20025;-82
2023/04/20 05:13:18;;;;;;;4.78;2.30;;;12.80;73.10;;;;;;5075101;28;20158;-85
2023/04/20 05:15:44;;;;;;;4.72;2.55;;;12.80;73.10;;;;;;5056271;28;20060;-81
2023/04/20 05:18:09;;;;;;;4.90;2.40;;;12.80;73.20;;;;;;5055229;28;20025;-83
2023/04/20 05:20:35;;;;;;;3.95;2.17;;;12.80;73.20;;;;;;5054293;28;20510;-82
2023/04/20 05:23:01;;;;;;;4.55;2.55;;;12.80;73.20;;;;;;5073219;28;20420;-84
2023/04/20 05:25:26;;;;;;;4.13;2.30;;;12.80;73.20;;;;;;5054874;28;20029;-82
2023/04/20 05:27:51;;;;;;;3.83;2.17;;;12.80;73.20;;;;;;5071777;28;20028;-81
2023/04/20 05:30:17;;;;;;;4.15;2.30;;;12.80;73.20;;;;;;5052711;28;20035;-80
2023/04/20 05:32:42;;;;;;;4.32;2.40;;;12.80;73.30;;;;;;5052135;28;20078;-81
2023/04/20 05:35:08;;;;;;;6.00;2.65;;;12.80;73.20;;;;;;5053538;28;20107;-81
2023/04/20 05:37:34;;;;;;;5.75;2.67;;;12.80;73.30;;;;;;5051994;28;20107;-80
2023/04/20 05:39:59;;;;;;;5.10;2.33;;;12.80;73.30;;;;;;5052277;28;20070;-82
2023/04/20 05:42:25;;;;;;;5.18;2.58;;;12.80;73.30;;;;;;5054111;28;20024;-81
2023/04/20 05:44:50;;;;;;;4.10;2.28;;;12.80;73.30;;;;;;5053287;28;20400;-87
2023/04/20 05:47:16;;;;;;;5.03;2.38;;;12.80;73.30;;;;;;5054960;28;20028;-82
2023/04/20 05:49:41;;;;;;;4.32;2.20;;;12.80;73.30;;;;;;5073061;28;20067;-82
2023/04/20 05:52:07;;;;;;;3.67;2.30;;;12.80;73.30;;;;;;5057002;28;20037;-82
2023/04/20 05:54:33;;;;;;;4.15;2.40;;;12.80;73.30;;;;;;5056103;28;20028;-82
2023/04/20 05:57:01;;;;;;;4.22;2.30;;;12.80;73.30;;;;;;5040275;28;20459;-80
2023/04/20 05:59:27;;;;;;;4.18;2.28;;;12.90;73.30;;;;;;5056214;28;20281;-81
2023/04/20 06:01:52;;;;;;;5.00;2.38;;;12.80;73.30;;;;;;5055646;28;20492;-79
2023/04/20 06:04:18;;;;;;;4.38;2.50;;;12.80;73.20;;;;;;5054609;28;20032;-81
2023/04/20 06:06:43;;;;;;;4.72;2.40;;;12.80;73.30;;;;;;5039467;28;20041;-84
2023/04/20 06:09:09;;;;;;;4.60;2.42;;;12.80;73.20;;;;;;5035538;28;20032;-80
2023/04/20 06:11:35;;;;;;;5.05;2.70;;;12.80;73.20;;;;;;5031623;28;20025;-79
2023/04/20 06:14:00;;;;;;;5.35;2.65;;;12.80;73.20;;;;;;5016286;28;20038;-80
2023/04/20 06:16:26;;;;;;;4.93;2.58;;;12.80;73.20;;;;;;5019580;28;20108;-81
2023/04/20 06:18:51;;;;;;;4.45;2.60;;;12.80;73.20;;;;;;5015873;28;20069;-80
2023/04/20 06:21:18;;;;;;;3.65;2.20;;;13.20;73.50;;;;;;5013452;28;20052;-82
2023/04/20 06:23:43;;;;;;;5.32;2.30;;;12.80;73.30;;;;;;5015337;28;20029;-78
2023/04/20 06:26:09;;;;;;;5.10;2.53;;;12.80;73.30;;;;;;5018810;28;20105;-83
2023/04/20 06:28:38;;;;;;;5.15;2.80;;;12.80;73.30;;;;;;5016251;28;20120;-79
2023/04/20 06:31:04;;;;;;;5.72;2.60;;;12.70;73.30;;;;;;5032694;28;20030;-78
2023/04/20 06:33:29;;;;;;;4.82;2.50;;;12.80;73.40;;;;;;5031946;28;20057;-81
2023/04/20 06:35:55;;;;;;;6.30;3.00;;;12.80;73.40;;;;;;5015740;28;20032;-82
2023/04/20 06:38:26;;;;;;;4.82;2.30;;;12.70;73.40;;;;;;5012849;28;20052;-83
2023/04/20 06:40:52;;;;;;;4.93;2.70;;;12.80;73.40;;;;;;5012247;28;20022;-84
2023/04/20 06:43:18;;;;;;;4.55;2.30;;;12.70;73.40;;;;;;5012727;28;20034;-81
2023/04/20 06:45:43;;;;;;;5.43;2.58;;;12.80;73.50;;;;;;5014376;28;20099;-82
2023/04/20 06:48:09;;;;;;;4.40;2.53;;;12.70;73.40;;;;;;5013862;28;20034;-80
2023/04/20 06:50:34;;;;;;;5.68;2.78;;;12.80;73.50;;;;;;5022444;28;20032;-84
2023/04/20 06:53:02;;;;;;;5.15;2.40;;;12.80;73.40;;;;;;5039573;28;20036;-83
2023/04/20 06:55:28;;;;;;;6.72;2.70;;;12.70;73.40;;;;;;5024406;28;20084;-80
2023/04/20 06:57:53;;;;;;;5.20;2.85;;;12.80;73.40;;;;;;5022571;28;20458;-82
2023/04/20 07:00:19;;;;;;;5.25;2.60;;;12.80;73.40;;;;;;5027452;28;20097;-84
2023/04/20 07:06:16;;;;;;;4.75;2.50;;;12.60;73.20;;;;;;4914756;29;20035;-79
2023/04/20 07:08:41;;;;;;;5.40;2.70;;;13.10;73.50;;;;;;4913679;29;20256;-78
2023/04/20 07:11:07;;;;;;;4.45;2.55;;;12.70;73.20;;;;;;4962607;28;20087;-82
2023/04/20 07:13:32;;;;;;;5.63;2.80;;;12.70;73.20;;;;;;5017405;28;20018;-83
2023/04/20 07:15:58;;;;;;;7.40;2.95;;;12.70;73.30;;;;;;5057280;23;20509;-82
2023/04/20 07:18:24;;;;;;;5.80;2.97;;;12.80;73.30;;;;;;5031609;28;20040;-83
2023/04/20 07:20:49;;;;;;;4.90;2.67;;;12.70;73.30;;;;;;5016784;28;20113;-82
2023/04/20 07:23:15;;;;;;;4.70;2.38;;;12.80;73.40;;;;;;5017811;28;20022;-81
2023/04/20 07:25:40;;;;;;;5.60;2.88;;;12.80;73.50;;;;;;5018076;28;20026;-82
2023/04/20 07:28:06;;;;;;;4.95;2.70;;;12.80;73.40;;;;;;5035265;28;20025;-82
2023/04/20 07:30:31;;;;;;;5.53;2.60;;;12.80;73.40;;;;;;5017525;28;20021;-83
2023/04/20 07:32:57;;;;;;;5.85;2.70;;;12.70;73.40;;;;;;5017702;28;20021;-83
2023/04/20 07:35:22;;;;;;;6.95;3.25;;;12.80;73.40;;;;;;5017745;28;20377;-82
2023/04/20 07:37:48;;;;;;;5.65;2.55;;;12.70;73.40;;;;;;5017358;28;20021;-82
2023/04/20 07:40:15;;;;;;;7.18;2.97;;;12.70;73.30;;;;;;5017325;28;20474;-81
2023/04/20 07:42:41;;;;;;;6.00;3.45;;;12.70;73.30;;;;;;5017559;28;20029;-82
2023/04/20 07:45:07;;;;;;;5.20;2.60;;;12.80;73.20;;;;;;5035105;28;20033;-82
2023/04/20 07:47:33;;;;;;;4.75;2.70;;;12.80;73.10;;;;;;5017364;28;20157;-83
2023/04/20 07:49:59;;;;;;;5.90;3.00;;;12.80;73.20;;;;;;5017195;28;20030;-82
2023/04/20 07:52:25;;;;;;;5.55;2.83;;;12.80;73.10;;;;;;5017304;28;20088;-82
2023/04/20 07:54:52;;;;;;;5.80;3.10;;;12.80;73.10;;;;;;5017544;28;20493;-83
2023/04/20 07:57:21;;;;;;;5.72;3.20;;;12.80;73.10;;;;;;5017040;28;20032;-83
2023/04/20 07:59:47;;;;;;;6.85;3.17;;;12.80;73.10;;;;;;5017203;28;20018;-83
2023/04/20 08:02:12;;;;;;;7.72;2.90;;;12.80;73.10;;;;;;5034566;28;20037;-83
2023/04/20 08:04:38;;;;;;;6.63;3.28;;;12.90;73.20;;;;;;5017273;28;20032;-83
2023/04/20 08:07:03;;;;;;;5.93;2.88;;;12.90;73.10;;;;;;5016879;28;20025;-83
2023/04/20 08:09:29;;;;;;;7.38;3.30;;;12.90;73.20;;;;;;5016925;28;20044;-82
2023/04/20 08:11:55;;;;;;;5.00;2.85;;;12.90;73.10;;;;;;5016812;28;20442;-85
2023/04/20 08:14:20;;;;;;;6.05;3.10;;;12.90;73.00;;;;;;5016947;28;20116;-82
2023/04/20 08:16:46;;;;;;;5.03;3.10;;;13.00;73.00;;;;;;5016780;28;20396;-83
2023/04/20 08:19:11;;;;;;;5.68;2.95;;;12.90;73.00;;;;;;5034454;28;20097;-83
2023/04/20 08:21:38;;;;;;;5.28;2.78;;;13.00;72.90;;;;;;5034121;28;20036;-82
2023/04/20 08:24:05;;;;;;;5.85;3.22;;;12.90;72.90;;;;;;5016693;28;20033;-83
2023/04/20 08:26:31;;;;;;;5.80;3.10;;;13.00;72.90;;;;;;5016503;28;20036;-83
2023/04/20 08:28:57;;;;;;;5.57;3.10;;;13.00;72.90;;;;;;5016609;28;20025;-83
2023/04/20 08:31:22;;;;;;;5.97;2.90;;;13.00;72.90;;;;;;5015819;28;20061;-83
2023/04/20 08:33:48;;;;;;;5.93;2.80;;;12.90;72.80;;;;;;5016572;28;20067;-84
2023/04/20 08:36:14;;;;;;;5.38;3.10;;;13.00;72.90;;;;;;5034153;28;20037;-83
2023/04/20 08:38:39;;;;;;;7.35;3.22;;;13.00;73.00;;;;;;5016301;28;20389;-83
2023/04/20 08:41:05;;;;;;;6.03;3.30;;;13.00;73.00;;;;;;5016257;28;20029;-80
2023/04/20 08:43:30;;;;;;;5.55;3.20;;;13.00;72.90;;;;;;5016313;28;20036;-82
2023/04/20 08:45:58;;;;;;;6.53;3.38;;;13.00;72.90;;;;;;5016716;28;20383;-81
2023/04/20 08:48:25;;;;;;;5.05;2.70;;;13.00;73.00;;;;;;5016148;28;20030;-83
2023/04/20 08:50:51;;;;;;;7.15;3.67;;;13.00;73.00;;;;;;5033840;28;20386;-82
2023/04/20 08:53:17;;;;;;;5.20;3.00;;;13.00;73.00;;;;;;5016140;28;20018;-84
2023/04/20 08:55:42;;;;;;;5.15;2.83;;;13.00;73.10;;;;;;5015946;28;20437;-83
2023/04/20 08:58:08;;;;;;;5.88;2.97;;;12.90;73.10;;;;;;5016158;28;20018;-82
2023/04/20 09:00:34;;;;;;;6.15;3.25;;;12.90;73.00;;;;;;5015739;28;20036;-82
2023/04/20 09:03:00;;;;;;;6.18;3.15;;;12.90;73.00;;;;;;5016082;28;20022;-81
2023/04/20 09:05:30;;;;;;;6.53;3.28;;;13.00;73.00;;;;;;5015896;28;20067;-83
2023/04/20 09:07:58;;;;;;;5.65;3.30;;;13.00;73.00;;;;;;5015834;28;20389;-83
2023/04/20 09:10:25;;;;;;;6.50;3.63;;;13.00;73.00;;;;;;5015510;28;20036;-82
2023/04/20 09:12:51;;;;;;;5.13;3.13;;;13.00;73.00;;;;;;5015699;28;20029;-82
2023/04/20 09:15:27;;;;;;;6.13;3.00;;;12.90;73.00;;;;;;5015471;28;20018;-83
2023/04/20 09:17:53;;;;;;;5.35;3.00;;;13.00;73.00;;;;;;5015611;28;20489;-84
2023/04/20 09:20:28;;;;;;;5.07;2.88;;;13.00;73.00;;;;;;5015557;28;20032;-83
2023/04/20 09:22:54;;;;;;;5.47;3.17;;;13.00;73.10;;;;;;5015650;28;20607;-85
2023/04/20 09:25:20;;;;;;;5.18;2.90;;;13.00;73.00;;;;;;5015891;28;20061;-84
2023/04/20 09:27:59;;;;;;;6.05;3.03;;;13.00;73.10;;;;;;5015709;28;20358;-83
2023/04/20 09:30:35;;;;;;;5.75;3.30;;;13.00;73.10;;;;;;5015055;28;20052;-81
2023/04/20 09:33:02;;;;;;;5.20;3.00;;;13.00;73.10;;;;;;5015504;28;20129;-82
2023/04/20 09:35:27;;;;;;;5.43;3.28;;;13.00;73.10;;;;;;5032959;28;20508;-83
2023/04/20 09:37:53;;;;;;;5.57;3.13;;;13.00;73.10;;;;;;5032961;28;20022;-82
2023/04/20 09:40:20;;;;;;;5.78;3.13;;;13.00;73.00;;;;;;5015074;28;20056;-82
2023/04/20 09:42:47;;;;;;;5.65;3.10;;;13.00;73.00;;;;;;5014530;28;20030;-83
2023/04/20 09:45:15;;;;;;;5.47;3.28;;;13.00;72.90;;;;;;5015295;28;20112;-83
2023/04/20 09:47:41;;;;;;;4.95;2.83;;;13.10;72.90;;;;;;5032789;28;20021;-83
2023/04/20 09:50:09;;;;;;;5.68;3.03;;;13.10;72.70;;;;;;5014994;28;20030;-83
2023/04/20 09:52:37;;;;;;;5.55;3.30;;;13.10;72.70;;;;;;5014861;28;20033;-83
2023/04/20 09:55:04;;;;;;;5.25;2.95;;;13.10;72.80;;;;;;5015082;28;20481;-83
2023/04/20 09:57:31;;;;;;;5.45;3.28;;;13.10;73.40;;;;;;5014847;28;20021;-83
2023/04/20 09:59:58;;;;;;;4.78;2.97;;;13.20;72.90;;;;;;5014975;28;20486;-82
2023/04/20 10:02:24;;;;;;;6.18;3.22;;;13.20;72.70;;;;;;5014750;28;20343;-83
2023/04/20 10:04:55;;;;;;;5.35;3.10;;;13.10;72.70;;;;;;5014924;28;20101;-83
2023/04/20 10:07:27;;;;;;;5.78;3.30;;;13.20;72.70;;;;;;5014747;28;20112;-82
2023/04/20 10:10:14;;;;;;;5.65;3.10;;;13.20;72.70;;;;;;5014791;28;20176;-83
2023/04/20 10:12:54;;;;;;;5.07;2.90;;;13.20;72.80;;;;;;5014718;28;20402;-82
2023/04/20 10:15:23;;;;;;;4.68;2.85;;;13.20;72.80;;;;;;5014658;28;20021;-81
2023/04/20 10:17:49;;;;;;;4.85;2.97;;;13.20;72.80;;;;;;5014652;28;20108;-82
2023/04/20 10:20:20;;;;;;;4.85;2.75;;;13.20;72.70;;;;;;5014515;28;20048;-80
2023/04/20 10:22:46;;;;;;;5.63;2.90;;;13.20;72.80;;;;;;5014596;28;20037;-81
2023/04/20 10:25:18;;;;;;;5.10;2.90;;;13.30;72.80;;;;;;5014694;28;20034;-81
2023/04/20 10:27:58;;;;;;;5.53;3.10;;;13.30;72.90;;;;;;5014521;28;20029;-82
2023/04/20 10:30:25;;;;;;;4.90;3.10;;;13.30;72.80;;;;;;5014385;28;20068;-84
2023/04/20 10:33:02;;;;;;;4.70;2.95;;;13.30;72.70;;;;;;5014485;28;20232;-83
2023/04/20 10:35:28;;;;;;;5.07;3.10;;;13.30;72.70;;;;;;5014248;28;20028;-82
2023/04/20 10:37:54;;;;;;;5.35;2.85;;;13.30;72.60;;;;;;5014380;28;20025;-83
2023/04/20 10:40:26;;;;;;;5.40;3.20;;;13.30;72.70;;;;;;5014009;28;20021;-83
2023/04/20 10:42:52;;;;;;;5.18;3.45;;;13.40;72.70;;;;;;5014267;28;20029;-85
2023/04/20 10:45:17;;;;;;;5.00;3.00;;;13.40;72.60;;;;;;5032028;28;20056;-83
2023/04/20 10:47:44;;;;;;;5.30;3.22;;;13.40;72.60;;;;;;5032242;28;20037;-84
2023/04/20 10:50:10;;;;;;;5.60;3.03;;;13.40;72.60;;;;;;5014111;28;20540;-81
2023/04/20 10:52:39;;;;;;;5.15;3.15;;;13.40;73.00;;;;;;5014138;28;20034;-82
2023/04/20 10:55:06;;;;;;;4.50;2.85;;;13.40;72.90;;;;;;5020714;28;20116;-83
2023/04/20 10:57:32;;;;;;;5.43;3.30;;;13.40;72.90;;;;;;5020501;28;20029;-81
2023/04/20 10:59:58;;;;;;;5.07;3.13;;;13.40;72.70;;;;;;5020622;28;20022;-83
2023/04/20 11:02:24;;;;;;;5.22;3.33;;;13.50;72.60;;;;;;5020486;28;20078;-83
2023/04/20 11:04:50;;;;;;;4.97;3.15;;;13.50;72.50;;;;;;5020712;28;20549;-81
2023/04/20 11:07:16;;;;;;;5.82;3.10;;;13.50;72.60;;;;;;5038082;28;20028;-82
2023/04/20 11:09:42;;;;;;;4.63;3.10;;;13.40;72.50;;;;;;5038427;28;20370;-81
2023/04/20 11:12:10;;;;;;;4.68;2.90;;;13.50;72.50;;;;;;5020344;28;20029;-81
2023/04/20 11:14:48;;;;;;;5.55;3.22;;;13.50;72.50;;;;;;5020620;28;20056;-81
2023/04/20 11:17:14;;;;;;;5.00;3.00;;;13.50;72.60;;;;;;5020529;28;20239;-83
2023/04/20 11:19:40;;;;;;;5.68;3.20;;;13.50;72.50;;;;;;5038233;28;20030;-82
2023/04/20 11:22:05;;;;;;;5.10;2.90;;;13.40;72.50;;;;;;5020343;28;20059;-83
2023/04/20 11:24:32;;;;;;;4.70;3.00;;;13.50;72.50;;;;;;5020365;28;20366;-82
2023/04/20 11:27:00;;;;;;;5.35;3.08;;;13.50;72.60;;;;;;5020428;28;20040;-83
2023/04/20 11:29:32;;;;;;;4.63;2.83;;;13.50;72.60;;;;;;5020716;28;20052;-82
2023/04/20 11:32:05;;;;;;;4.97;2.97;;;13.50;72.60;;;;;;5038154;28;20026;-82
2023/04/20 11:34:32;;;;;;;4.35;2.78;;;13.50;73.30;;;;;;5020326;28;20464;-83
2023/04/20 11:37:03;;;;;;;4.85;2.83;;;13.50;72.80;;;;;;5020347;28;20539;-83
2023/04/20 11:39:29;;;;;;;5.18;3.10;;;13.40;72.70;;;;;;5020513;28;20029;-82
2023/04/20 11:41:56;;;;;;;5.50;3.28;;;13.40;72.80;;;;;;5037852;28;20034;-83
2023/04/20 11:44:22;;;;;;;4.60;2.78;;;13.40;72.80;;;;;;5038092;28;20543;-82
2023/04/20 11:46:49;;;;;;;5.47;3.42;;;13.40;72.80;;;;;;5020228;28;20029;-82
2023/04/20 11:49:18;;;;;;;4.93;3.13;;;13.40;72.80;;;;;;5020347;28;20116;-83
2023/04/20 11:51:45;;;;;;;4.70;3.10;;;13.40;72.80;;;;;;5020000;28;20021;-83
2023/04/20 11:54:11;;;;;;;5.05;3.05;;;13.50;72.90;;;;;;5020284;28;20424;-81
2023/04/20 11:56:37;;;;;;;4.93;2.90;;;13.40;72.90;;;;;;5019964;28;20035;-84
2023/04/20 11:59:02;;;;;;;5.68;3.30;;;13.40;72.90;;;;;;5020263;28;20056;-82
2023/04/20 12:01:28;;;;;;;5.32;3.33;;;13.40;72.90;;;;;;5037659;28;20025;-83
2023/04/20 12:03:54;;;;;;;4.78;3.00;;;13.30;72.80;;;;;;5020182;28;20022;-83
2023/04/20 12:06:20;;;;;;;4.97;3.20;;;13.40;72.90;;;;;;5016444;28;20029;-83
2023/04/20 12:08:47;;;;;;;4.63;3.10;;;13.40;73.00;;;;;;5034767;28;20033;-83
2023/04/20 12:11:12;;;;;;;4.82;2.85;;;13.40;72.80;;;;;;5016859;28;20508;-81
2023/04/20 12:13:38;;;;;;;5.13;3.20;;;13.40;72.70;;;;;;5016991;28;20021;-83
2023/04/20 12:16:04;;;;;;;4.78;3.00;;;13.50;72.80;;;;;;5016773;28;20025;-82
2023/04/20 12:18:29;;;;;;;5.28;3.15;;;13.50;72.80;;;;;;5034494;28;20025;-82
2023/04/20 12:20:55;;;;;;;5.03;3.05;;;13.40;72.70;;;;;;5016717;28;20022;-82
2023/04/20 12:23:20;;;;;;;5.40;3.20;;;13.50;72.90;;;;;;5016692;28;20018;-83
2023/04/20 12:25:46;;;;;;;5.00;3.30;;;13.40;72.80;;;;;;5016726;28;20484;-83
2023/04/20 12:28:11;;;;;;;4.75;3.08;;;13.50;72.80;;;;;;5016759;28;20417;-84
2023/04/20 12:30:37;;;;;;;4.90;3.22;;;13.50;72.60;;;;;;5016376;28;20083;-83
2023/04/20 12:33:03;;;;;;;4.78;3.03;;;13.50;72.60;;;;;;5016623;28;20029;-82
2023/04/20 12:35:29;;;;;;;5.32;3.13;;;13.50;72.60;;;;;;5016515;28;20027;-83
2023/04/20 12:37:55;;;;;;;4.80;3.33;;;13.50;72.60;;;;;;5034407;28;20085;-83
2023/04/20 12:40:21;;;;;;;4.80;3.13;;;13.50;72.70;;;;;;5016085;28;20022;-82
2023/04/20 12:42:46;;;;;;;4.68;3.03;;;13.50;72.60;;;;;;5016526;28;20025;-83
2023/04/20 12:45:12;;;;;;;4.68;3.08;;;13.40;72.70;;;;;;5016818;28;20044;-84
2023/04/20 12:47:37;;;;;;;4.97;3.28;;;13.40;72.80;;;;;;5016043;28;20025;-81
2023/04/20 12:50:06;;;;;;;5.20;3.38;;;13.50;72.80;;;;;;5016163;28;20025;-83